sensor_id;sensor_type;location;lat;lon;timestamp;P1;durP1;ratioP1;P2;durP2;ratioP2
61840;SDS011;47773;53.174;6.614;2023-06-10T00:01:35;14.90;;;6.55;;
61840;SDS011;47773;53.174;6.614;2023-06-10T00:04:01;12.90;;;6.40;;
61840;SDS011;47773;53.174;6.614;2023-06-10T00:06:28;13.55;;;6.47;;
61840;SDS011;47773;53.174;6.614;2023-06-10T00:09:00;13.43;;;6.72;;
61840;SDS011;47773;53.174;6.614;2023-06-10T00:11:27;17.83;;;7.25;;
61840;SDS011;47773;53.174;6.614;2023-06-10T00:13:52;15.55;;;7.25;;
61840;SDS011;47773;53.174;6.614;2023-06-10T00:16:18;13.15;;;7.00;;
61840;SDS011;47773;53.174;6.614;2023-06-10T00:18:44;15.90;;;7.28;;
61840;SDS011;47773;53.174;6.614;2023-06-10T00:21:10;18.52;;;7.57;;
61840;SDS011;47773;53.174;6.614;2023-06-10T00:23:38;18.88;;;7.95;;
61840;SDS011;47773;53.174;6.614;2023-06-10T00:26:04;17.35;;;7.80;;
61840;SDS011;47773;53.174;6.614;2023-06-10T00:28:30;15.02;;;8.70;;
61840;SDS011;47773;53.174;6.614;2023-06-10T00:30:55;17.70;;;8.77;;
61840;SDS011;47773;53.174;6.614;2023-06-10T00:33:22;20.15;;;10.00;;
61840;SDS011;47773;53.174;6.614;2023-06-10T00:35:48;16.38;;;9.90;;
61840;SDS011;47773;53.174;6.614;2023-06-10T00:38:13;18.20;;;10.63;;
61840;SDS011;47773;53.174;6.614;2023-06-10T00:40:40;18.40;;;10.07;;
61840;SDS011;47773;53.174;6.614;2023-06-10T00:43:06;18.45;;;10.18;;
61840;SDS011;47773;53.174;6.614;2023-06-10T00:45:32;19.15;;;9.82;;
61840;SDS011;47773;53.174;6.614;2023-06-10T00:47:58;20.67;;;9.73;;
61840;SDS011;47773;53.174;6.614;2023-06-10T00:50:25;22.02;;;9.25;;
61840;SDS011;47773;53.174;6.614;2023-06-10T00:52:51;20.52;;;9.38;;
61840;SDS011;47773;53.174;6.614;2023-06-10T00:55:18;19.90;;;9.38;;
61840;SDS011;47773;53.174;6.614;2023-06-10T00:57:47;18.58;;;9.13;;
61840;SDS011;47773;53.174;6.614;2023-06-10T01:00:16;16.35;;;9.77;;
61840;SDS011;47773;53.174;6.614;2023-06-10T01:02:42;21.42;;;10.60;;
61840;SDS011;47773;53.174;6.614;2023-06-10T01:05:08;21.50;;;12.38;;
61840;SDS011;47773;53.174;6.614;2023-06-10T01:10:38;22.27;;;13.18;;
61840;SDS011;47773;53.174;6.614;2023-06-10T01:13:09;18.23;;;12.23;;
61840;SDS011;47773;53.174;6.614;2023-06-10T01:15:37;25.55;;;12.63;;
61840;SDS011;47773;53.174;6.614;2023-06-10T01:18:04;21.73;;;12.13;;
61840;SDS011;47773;53.174;6.614;2023-06-10T01:20:34;22.65;;;11.80;;
61840;SDS011;47773;53.174;6.614;2023-06-10T01:23:05;23.08;;;11.15;;
61840;SDS011;47773;53.174;6.614;2023-06-10T01:25:31;20.13;;;11.68;;
61840;SDS011;47773;53.174;6.614;2023-06-10T01:30:30;19.98;;;11.55;;
61840;SDS011;47773;53.174;6.614;2023-06-10T01:33:05;25.33;;;12.52;;
61840;SDS011;47773;53.174;6.614;2023-06-10T01:35:34;20.88;;;13.00;;
61840;SDS011;47773;53.174;6.614;2023-06-10T01:38:03;21.00;;;12.85;;
61840;SDS011;47773;53.174;6.614;2023-06-10T01:40:30;21.13;;;11.93;;
61840;SDS011;47773;53.174;6.614;2023-06-10T01:42:57;18.83;;;10.95;;
61840;SDS011;47773;53.174;6.614;2023-06-10T01:45:23;17.50;;;10.63;;
61840;SDS011;47773;53.174;6.614;2023-06-10T01:47:48;15.57;;;9.48;;
61840;SDS011;47773;53.174;6.614;2023-06-10T01:50:14;18.05;;;9.15;;
61840;SDS011;47773;53.174;6.614;2023-06-10T01:52:41;13.15;;;7.70;;
61840;SDS011;47773;53.174;6.614;2023-06-10T01:55:07;16.45;;;7.35;;
61840;SDS011;47773;53.174;6.614;2023-06-10T01:57:33;14.52;;;6.78;;
61840;SDS011;47773;53.174;6.614;2023-06-10T01:59:58;13.57;;;6.63;;
61840;SDS011;47773;53.174;6.614;2023-06-10T02:02:24;15.93;;;6.38;;
61840;SDS011;47773;53.174;6.614;2023-06-10T02:04:50;10.57;;;5.93;;
61840;SDS011;47773;53.174;6.614;2023-06-10T02:07:15;10.27;;;5.57;;
61840;SDS011;47773;53.174;6.614;2023-06-10T02:09:41;13.00;;;5.97;;
61840;SDS011;47773;53.174;6.614;2023-06-10T02:12:07;13.52;;;6.22;;
61840;SDS011;47773;53.174;6.614;2023-06-10T02:14:33;16.95;;;6.43;;
61840;SDS011;47773;53.174;6.614;2023-06-10T02:16:59;10.63;;;5.65;;
61840;SDS011;47773;53.174;6.614;2023-06-10T02:19:25;11.52;;;5.55;;
61840;SDS011;47773;53.174;6.614;2023-06-10T02:21:51;11.88;;;5.35;;
61840;SDS011;47773;53.174;6.614;2023-06-10T02:24:17;14.43;;;5.63;;
61840;SDS011;47773;53.174;6.614;2023-06-10T02:26:43;17.67;;;5.50;;
61840;SDS011;47773;53.174;6.614;2023-06-10T02:29:09;12.15;;;5.60;;
61840;SDS011;47773;53.174;6.614;2023-06-10T02:31:34;11.70;;;5.45;;
61840;SDS011;47773;53.174;6.614;2023-06-10T02:34:00;13.00;;;5.28;;
61840;SDS011;47773;53.174;6.614;2023-06-10T02:36:28;9.52;;;5.03;;
61840;SDS011;47773;53.174;6.614;2023-06-10T02:38:53;9.65;;;5.03;;
61840;SDS011;47773;53.174;6.614;2023-06-10T02:41:19;12.23;;;5.05;;
61840;SDS011;47773;53.174;6.614;2023-06-10T02:43:46;12.43;;;5.18;;
61840;SDS011;47773;53.174;6.614;2023-06-10T02:46:12;10.25;;;5.15;;
61840;SDS011;47773;53.174;6.614;2023-06-10T02:48:42;10.32;;;4.70;;
61840;SDS011;47773;53.174;6.614;2023-06-10T02:51:09;11.40;;;5.32;;
61840;SDS011;47773;53.174;6.614;2023-06-10T02:53:35;14.00;;;5.25;;
61840;SDS011;47773;53.174;6.614;2023-06-10T02:56:01;12.05;;;5.18;;
61840;SDS011;47773;53.174;6.614;2023-06-10T02:58:27;13.93;;;5.38;;
61840;SDS011;47773;53.174;6.614;2023-06-10T03:00:53;13.35;;;4.90;;
61840;SDS011;47773;53.174;6.614;2023-06-10T03:03:18;12.40;;;4.45;;
61840;SDS011;47773;53.174;6.614;2023-06-10T03:05:45;12.50;;;5.43;;
61840;SDS011;47773;53.174;6.614;2023-06-10T03:08:11;12.65;;;5.10;;
61840;SDS011;47773;53.174;6.614;2023-06-10T03:10:36;15.27;;;5.05;;
61840;SDS011;47773;53.174;6.614;2023-06-10T03:13:02;14.80;;;5.45;;
61840;SDS011;47773;53.174;6.614;2023-06-10T03:15:28;13.48;;;4.97;;
61840;SDS011;47773;53.174;6.614;2023-06-10T03:17:54;14.73;;;5.07;;
61840;SDS011;47773;53.174;6.614;2023-06-10T03:20:20;10.55;;;5.25;;
61840;SDS011;47773;53.174;6.614;2023-06-10T03:22:46;13.40;;;5.20;;
61840;SDS011;47773;53.174;6.614;2023-06-10T03:25:12;9.90;;;4.95;;
61840;SDS011;47773;53.174;6.614;2023-06-10T03:27:39;12.13;;;5.25;;
61840;SDS011;47773;53.174;6.614;2023-06-10T03:30:06;10.98;;;4.78;;
61840;SDS011;47773;53.174;6.614;2023-06-10T03:32:33;16.58;;;5.32;;
61840;SDS011;47773;53.174;6.614;2023-06-10T03:35:00;11.68;;;5.90;;
61840;SDS011;47773;53.174;6.614;2023-06-10T03:37:26;12.13;;;5.20;;
61840;SDS011;47773;53.174;6.614;2023-06-10T03:39:52;12.75;;;5.38;;
61840;SDS011;47773;53.174;6.614;2023-06-10T03:42:17;12.73;;;5.57;;
61840;SDS011;47773;53.174;6.614;2023-06-10T03:44:43;16.65;;;5.68;;
61840;SDS011;47773;53.174;6.614;2023-06-10T03:47:09;14.93;;;5.45;;
61840;SDS011;47773;53.174;6.614;2023-06-10T03:49:34;13.57;;;5.75;;
61840;SDS011;47773;53.174;6.614;2023-06-10T03:52:01;15.20;;;5.82;;
61840;SDS011;47773;53.174;6.614;2023-06-10T03:54:27;12.35;;;5.55;;
61840;SDS011;47773;53.174;6.614;2023-06-10T03:56:53;16.20;;;5.60;;
61840;SDS011;47773;53.174;6.614;2023-06-10T03:59:18;11.75;;;5.05;;
61840;SDS011;47773;53.174;6.614;2023-06-10T04:01:44;15.77;;;5.68;;
61840;SDS011;47773;53.174;6.614;2023-06-10T04:04:11;14.65;;;5.95;;
61840;SDS011;47773;53.174;6.614;2023-06-10T04:06:41;16.65;;;5.65;;
61840;SDS011;47773;53.174;6.614;2023-06-10T04:09:08;12.50;;;5.68;;
61840;SDS011;47773;53.174;6.614;2023-06-10T04:11:35;12.43;;;5.45;;
61840;SDS011;47773;53.174;6.614;2023-06-10T04:14:01;13.50;;;5.55;;
61840;SDS011;47773;53.174;6.614;2023-06-10T04:16:27;16.92;;;6.05;;
61840;SDS011;47773;53.174;6.614;2023-06-10T04:18:53;15.48;;;5.90;;
61840;SDS011;47773;53.174;6.614;2023-06-10T04:21:18;18.00;;;5.88;;
61840;SDS011;47773;53.174;6.614;2023-06-10T04:23:44;13.43;;;5.97;;
61840;SDS011;47773;53.174;6.614;2023-06-10T04:26:10;18.15;;;5.75;;
61840;SDS011;47773;53.174;6.614;2023-06-10T04:28:37;14.15;;;5.50;;
61840;SDS011;47773;53.174;6.614;2023-06-10T04:31:03;13.80;;;5.75;;
61840;SDS011;47773;53.174;6.614;2023-06-10T04:33:29;12.60;;;5.53;;
61840;SDS011;47773;53.174;6.614;2023-06-10T04:35:56;14.73;;;6.00;;
61840;SDS011;47773;53.174;6.614;2023-06-10T04:38:22;10.30;;;5.50;;
61840;SDS011;47773;53.174;6.614;2023-06-10T04:40:48;12.30;;;6.00;;
61840;SDS011;47773;53.174;6.614;2023-06-10T04:43:13;16.67;;;6.00;;
61840;SDS011;47773;53.174;6.614;2023-06-10T04:45:39;11.27;;;5.38;;
61840;SDS011;47773;53.174;6.614;2023-06-10T04:48:05;12.02;;;5.85;;
61840;SDS011;47773;53.174;6.614;2023-06-10T04:50:32;14.57;;;5.80;;
61840;SDS011;47773;53.174;6.614;2023-06-10T04:52:58;13.48;;;5.75;;
61840;SDS011;47773;53.174;6.614;2023-06-10T04:55:24;13.88;;;5.65;;
61840;SDS011;47773;53.174;6.614;2023-06-10T04:57:50;14.20;;;6.13;;
61840;SDS011;47773;53.174;6.614;2023-06-10T05:00:16;15.57;;;5.82;;
61840;SDS011;47773;53.174;6.614;2023-06-10T05:02:42;14.35;;;6.07;;
61840;SDS011;47773;53.174;6.614;2023-06-10T05:05:08;17.80;;;6.47;;
61840;SDS011;47773;53.174;6.614;2023-06-10T05:07:33;13.10;;;5.60;;
61840;SDS011;47773;53.174;6.614;2023-06-10T05:09:59;12.90;;;5.88;;
61840;SDS011;47773;53.174;6.614;2023-06-10T05:12:25;16.98;;;6.03;;
61840;SDS011;47773;53.174;6.614;2023-06-10T05:14:51;18.25;;;6.45;;
61840;SDS011;47773;53.174;6.614;2023-06-10T05:17:17;17.02;;;5.72;;
61840;SDS011;47773;53.174;6.614;2023-06-10T05:19:42;15.93;;;6.55;;
61840;SDS011;47773;53.174;6.614;2023-06-10T05:22:09;19.45;;;6.30;;
61840;SDS011;47773;53.174;6.614;2023-06-10T05:24:35;15.18;;;5.72;;
61840;SDS011;47773;53.174;6.614;2023-06-10T05:27:00;17.50;;;5.95;;
61840;SDS011;47773;53.174;6.614;2023-06-10T05:29:27;15.32;;;5.95;;
61840;SDS011;47773;53.174;6.614;2023-06-10T05:31:53;16.33;;;6.28;;
61840;SDS011;47773;53.174;6.614;2023-06-10T05:34:22;14.80;;;6.07;;
61840;SDS011;47773;53.174;6.614;2023-06-10T05:36:47;15.93;;;6.00;;
61840;SDS011;47773;53.174;6.614;2023-06-10T05:39:13;13.02;;;6.03;;
61840;SDS011;47773;53.174;6.614;2023-06-10T05:41:39;13.65;;;6.40;;
61840;SDS011;47773;53.174;6.614;2023-06-10T05:44:04;14.18;;;6.38;;
61840;SDS011;47773;53.174;6.614;2023-06-10T05:46:30;12.25;;;6.25;;
61840;SDS011;47773;53.174;6.614;2023-06-10T05:48:55;13.52;;;6.00;;
61840;SDS011;47773;53.174;6.614;2023-06-10T05:51:21;16.63;;;6.30;;
61840;SDS011;47773;53.174;6.614;2023-06-10T05:53:47;17.50;;;6.57;;
61840;SDS011;47773;53.174;6.614;2023-06-10T05:56:13;18.38;;;6.22;;
61840;SDS011;47773;53.174;6.614;2023-06-10T05:58:39;15.20;;;6.65;;
61840;SDS011;47773;53.174;6.614;2023-06-10T06:01:05;12.20;;;5.65;;
61840;SDS011;47773;53.174;6.614;2023-06-10T06:03:31;19.45;;;5.80;;
61840;SDS011;47773;53.174;6.614;2023-06-10T06:05:56;17.08;;;6.60;;
61840;SDS011;47773;53.174;6.614;2023-06-10T06:08:22;16.83;;;6.28;;
61840;SDS011;47773;53.174;6.614;2023-06-10T06:10:47;12.95;;;5.70;;
61840;SDS011;47773;53.174;6.614;2023-06-10T06:13:13;18.77;;;6.47;;
61840;SDS011;47773;53.174;6.614;2023-06-10T06:15:39;13.35;;;6.13;;
61840;SDS011;47773;53.174;6.614;2023-06-10T06:18:05;14.05;;;6.40;;
61840;SDS011;47773;53.174;6.614;2023-06-10T06:20:30;13.10;;;5.40;;
61840;SDS011;47773;53.174;6.614;2023-06-10T06:22:56;18.95;;;6.57;;
61840;SDS011;47773;53.174;6.614;2023-06-10T06:25:21;12.02;;;5.95;;
61840;SDS011;47773;53.174;6.614;2023-06-10T06:27:48;13.02;;;6.13;;
61840;SDS011;47773;53.174;6.614;2023-06-10T06:30:14;20.10;;;6.72;;
61840;SDS011;47773;53.174;6.614;2023-06-10T06:32:39;17.70;;;5.93;;
61840;SDS011;47773;53.174;6.614;2023-06-10T06:35:05;12.27;;;5.57;;
61840;SDS011;47773;53.174;6.614;2023-06-10T06:37:33;13.07;;;5.68;;
61840;SDS011;47773;53.174;6.614;2023-06-10T06:39:58;14.38;;;5.80;;
61840;SDS011;47773;53.174;6.614;2023-06-10T06:42:24;12.38;;;5.68;;
61840;SDS011;47773;53.174;6.614;2023-06-10T06:44:50;13.85;;;5.75;;
61840;SDS011;47773;53.174;6.614;2023-06-10T06:47:16;18.92;;;5.95;;
61840;SDS011;47773;53.174;6.614;2023-06-10T06:49:45;14.65;;;6.00;;
61840;SDS011;47773;53.174;6.614;2023-06-10T06:52:11;12.10;;;5.75;;
61840;SDS011;47773;53.174;6.614;2023-06-10T06:54:37;14.60;;;6.43;;
61840;SDS011;47773;53.174;6.614;2023-06-10T06:57:03;17.20;;;6.18;;
61840;SDS011;47773;53.174;6.614;2023-06-10T06:59:29;13.73;;;5.82;;
61840;SDS011;47773;53.174;6.614;2023-06-10T07:01:54;15.40;;;5.82;;
61840;SDS011;47773;53.174;6.614;2023-06-10T07:04:20;16.88;;;6.10;;
61840;SDS011;47773;53.174;6.614;2023-06-10T07:06:47;20.35;;;5.85;;
61840;SDS011;47773;53.174;6.614;2023-06-10T07:09:13;14.88;;;6.13;;
61840;SDS011;47773;53.174;6.614;2023-06-10T07:11:39;11.57;;;5.38;;
61840;SDS011;47773;53.174;6.614;2023-06-10T07:14:05;12.48;;;5.53;;
61840;SDS011;47773;53.174;6.614;2023-06-10T07:16:31;16.58;;;6.30;;
61840;SDS011;47773;53.174;6.614;2023-06-10T07:18:56;15.82;;;5.72;;
61840;SDS011;47773;53.174;6.614;2023-06-10T07:21:22;10.23;;;5.45;;
61840;SDS011;47773;53.174;6.614;2023-06-10T07:23:48;12.85;;;5.18;;
61840;SDS011;47773;53.174;6.614;2023-06-10T07:26:14;20.52;;;5.95;;
61840;SDS011;47773;53.174;6.614;2023-06-10T07:28:40;17.73;;;5.97;;
61840;SDS011;47773;53.174;6.614;2023-06-10T07:31:06;9.10;;;5.63;;
61840;SDS011;47773;53.174;6.614;2023-06-10T07:33:33;13.63;;;5.85;;
61840;SDS011;47773;53.174;6.614;2023-06-10T07:35:58;13.85;;;6.40;;
61840;SDS011;47773;53.174;6.614;2023-06-10T07:38:24;14.13;;;5.53;;
61840;SDS011;47773;53.174;6.614;2023-06-10T07:40:51;13.93;;;6.05;;
61840;SDS011;47773;53.174;6.614;2023-06-10T07:43:16;15.45;;;5.90;;
61840;SDS011;47773;53.174;6.614;2023-06-10T07:45:43;13.82;;;5.82;;
61840;SDS011;47773;53.174;6.614;2023-06-10T07:48:09;14.75;;;5.93;;
61840;SDS011;47773;53.174;6.614;2023-06-10T07:50:35;11.52;;;5.68;;
61840;SDS011;47773;53.174;6.614;2023-06-10T07:53:01;11.93;;;5.78;;
61840;SDS011;47773;53.174;6.614;2023-06-10T07:55:27;17.15;;;5.75;;
61840;SDS011;47773;53.174;6.614;2023-06-10T07:57:53;21.95;;;5.75;;
61840;SDS011;47773;53.174;6.614;2023-06-10T08:00:20;16.73;;;5.85;;
61840;SDS011;47773;53.174;6.614;2023-06-10T08:02:46;11.63;;;5.28;;
61840;SDS011;47773;53.174;6.614;2023-06-10T08:05:12;11.07;;;5.10;;
61840;SDS011;47773;53.174;6.614;2023-06-10T08:07:41;11.02;;;5.07;;
61840;SDS011;47773;53.174;6.614;2023-06-10T08:10:07;15.70;;;5.25;;
61840;SDS011;47773;53.174;6.614;2023-06-10T08:12:33;12.38;;;4.70;;
61840;SDS011;47773;53.174;6.614;2023-06-10T08:15:00;13.00;;;4.97;;
61840;SDS011;47773;53.174;6.614;2023-06-10T08:17:26;14.93;;;5.40;;
61840;SDS011;47773;53.174;6.614;2023-06-10T08:19:51;13.32;;;4.72;;
61840;SDS011;47773;53.174;6.614;2023-06-10T08:22:17;11.05;;;4.75;;
61840;SDS011;47773;53.174;6.614;2023-06-10T08:24:43;13.95;;;4.97;;
61840;SDS011;47773;53.174;6.614;2023-06-10T08:27:09;14.60;;;4.90;;
61840;SDS011;47773;53.174;6.614;2023-06-10T08:29:35;13.48;;;5.57;;
61840;SDS011;47773;53.174;6.614;2023-06-10T08:32:01;14.90;;;5.32;;
61840;SDS011;47773;53.174;6.614;2023-06-10T08:34:28;13.73;;;4.80;;
61840;SDS011;47773;53.174;6.614;2023-06-10T08:36:53;12.77;;;4.72;;
61840;SDS011;47773;53.174;6.614;2023-06-10T08:39:21;12.43;;;4.65;;
61840;SDS011;47773;53.174;6.614;2023-06-10T08:42:11;13.05;;;4.97;;
61840;SDS011;47773;53.174;6.614;2023-06-10T08:44:46;10.70;;;4.50;;
61840;SDS011;47773;53.174;6.614;2023-06-10T08:47:15;11.90;;;5.03;;
61840;SDS011;47773;53.174;6.614;2023-06-10T08:49:45;11.60;;;5.03;;
61840;SDS011;47773;53.174;6.614;2023-06-10T08:52:15;18.65;;;5.20;;
61840;SDS011;47773;53.174;6.614;2023-06-10T08:54:43;13.85;;;5.20;;
61840;SDS011;47773;53.174;6.614;2023-06-10T08:57:21;11.70;;;4.47;;
61840;SDS011;47773;53.174;6.614;2023-06-10T08:59:48;18.65;;;5.15;;
61840;SDS011;47773;53.174;6.614;2023-06-10T09:02:14;12.18;;;5.15;;
61840;SDS011;47773;53.174;6.614;2023-06-10T09:04:43;11.27;;;5.00;;
61840;SDS011;47773;53.174;6.614;2023-06-10T09:07:11;12.25;;;4.88;;
61840;SDS011;47773;53.174;6.614;2023-06-10T09:09:39;10.23;;;4.65;;
61840;SDS011;47773;53.174;6.614;2023-06-10T09:12:08;13.20;;;5.15;;
61840;SDS011;47773;53.174;6.614;2023-06-10T09:14:34;12.48;;;5.07;;
61840;SDS011;47773;53.174;6.614;2023-06-10T09:17:00;13.38;;;4.55;;
61840;SDS011;47773;53.174;6.614;2023-06-10T09:19:27;11.48;;;4.85;;
61840;SDS011;47773;53.174;6.614;2023-06-10T09:21:54;19.60;;;4.80;;
61840;SDS011;47773;53.174;6.614;2023-06-10T09:24:23;13.65;;;4.82;;
61840;SDS011;47773;53.174;6.614;2023-06-10T09:26:49;10.32;;;4.28;;
61840;SDS011;47773;53.174;6.614;2023-06-10T09:29:16;10.10;;;4.32;;
61840;SDS011;47773;53.174;6.614;2023-06-10T09:31:42;8.15;;;4.50;;
61840;SDS011;47773;53.174;6.614;2023-06-10T09:36:36;10.93;;;5.03;;
61840;SDS011;47773;53.174;6.614;2023-06-10T09:39:02;15.90;;;4.75;;
61840;SDS011;47773;53.174;6.614;2023-06-10T09:41:32;11.07;;;4.90;;
61840;SDS011;47773;53.174;6.614;2023-06-10T09:44:09;12.05;;;4.53;;
61840;SDS011;47773;53.174;6.614;2023-06-10T09:46:41;12.82;;;4.70;;
61840;SDS011;47773;53.174;6.614;2023-06-10T09:49:09;12.88;;;5.07;;
61840;SDS011;47773;53.174;6.614;2023-06-10T09:51:35;15.63;;;4.55;;
61840;SDS011;47773;53.174;6.614;2023-06-10T09:54:04;11.07;;;4.65;;
61840;SDS011;47773;53.174;6.614;2023-06-10T09:56:36;11.95;;;4.47;;
61840;SDS011;47773;53.174;6.614;2023-06-10T09:59:02;11.27;;;4.70;;
61840;SDS011;47773;53.174;6.614;2023-06-10T10:01:31;10.35;;;4.50;;
61840;SDS011;47773;53.174;6.614;2023-06-10T10:03:58;9.20;;;4.72;;
61840;SDS011;47773;53.174;6.614;2023-06-10T10:06:24;13.82;;;4.80;;
61840;SDS011;47773;53.174;6.614;2023-06-10T10:08:51;11.15;;;4.57;;
61840;SDS011;47773;53.174;6.614;2023-06-10T10:11:18;11.70;;;5.03;;
61840;SDS011;47773;53.174;6.614;2023-06-10T10:13:47;14.95;;;4.80;;
61840;SDS011;47773;53.174;6.614;2023-06-10T10:16:18;10.38;;;4.65;;
61840;SDS011;47773;53.174;6.614;2023-06-10T10:18:48;14.07;;;5.28;;
61840;SDS011;47773;53.174;6.614;2023-06-10T10:21:25;11.10;;;4.70;;
61840;SDS011;47773;53.174;6.614;2023-06-10T10:24:07;14.10;;;4.57;;
61840;SDS011;47773;53.174;6.614;2023-06-10T10:26:41;12.35;;;4.57;;
61840;SDS011;47773;53.174;6.614;2023-06-10T10:29:11;13.77;;;4.55;;
61840;SDS011;47773;53.174;6.614;2023-06-10T10:31:50;16.47;;;4.73;;
61840;SDS011;47773;53.174;6.614;2023-06-10T10:34:21;13.60;;;4.97;;
61840;SDS011;47773;53.174;6.614;2023-06-10T10:36:53;13.48;;;4.07;;
61840;SDS011;47773;53.174;6.614;2023-06-10T10:39:19;16.60;;;4.90;;
61840;SDS011;47773;53.174;6.614;2023-06-10T10:41:46;14.10;;;4.90;;
61840;SDS011;47773;53.174;6.614;2023-06-10T10:44:12;15.68;;;5.40;;
61840;SDS011;47773;53.174;6.614;2023-06-10T10:46:42;10.88;;;4.50;;
61840;SDS011;47773;53.174;6.614;2023-06-10T10:49:09;14.25;;;5.57;;
61840;SDS011;47773;53.174;6.614;2023-06-10T10:51:37;14.32;;;4.72;;
61840;SDS011;47773;53.174;6.614;2023-06-10T10:54:18;14.13;;;4.78;;
61840;SDS011;47773;53.174;6.614;2023-06-10T10:59:45;8.63;;;4.57;;
61840;SDS011;47773;53.174;6.614;2023-06-10T11:02:15;13.85;;;4.78;;
61840;SDS011;47773;53.174;6.614;2023-06-10T11:04:48;11.95;;;5.38;;
61840;SDS011;47773;53.174;6.614;2023-06-10T11:10:06;14.05;;;5.20;;
61840;SDS011;47773;53.174;6.614;2023-06-10T11:12:49;13.55;;;5.18;;
61840;SDS011;47773;53.174;6.614;2023-06-10T11:20:45;14.30;;;5.07;;
61840;SDS011;47773;53.174;6.614;2023-06-10T11:28:38;12.57;;;5.80;;
61840;SDS011;47773;53.174;6.614;2023-06-10T11:31:05;12.15;;;5.05;;
61840;SDS011;47773;53.174;6.614;2023-06-10T11:33:31;16.38;;;5.53;;
61840;SDS011;47773;53.174;6.614;2023-06-10T11:35:57;15.43;;;5.55;;
61840;SDS011;47773;53.174;6.614;2023-06-10T11:38:23;12.98;;;5.22;;
61840;SDS011;47773;53.174;6.614;2023-06-10T11:40:49;12.98;;;5.10;;
61840;SDS011;47773;53.174;6.614;2023-06-10T11:43:16;12.68;;;5.30;;
61840;SDS011;47773;53.174;6.614;2023-06-10T11:45:43;12.25;;;5.80;;
61840;SDS011;47773;53.174;6.614;2023-06-10T11:48:09;12.05;;;5.32;;
61840;SDS011;47773;53.174;6.614;2023-06-10T11:50:35;13.25;;;4.70;;
61840;SDS011;47773;53.174;6.614;2023-06-10T11:53:02;10.18;;;4.60;;
61840;SDS011;47773;53.174;6.614;2023-06-10T11:55:44;12.02;;;5.32;;
61840;SDS011;47773;53.174;6.614;2023-06-10T11:58:17;17.83;;;5.25;;
61840;SDS011;47773;53.174;6.614;2023-06-10T12:00:47;13.82;;;5.10;;
61840;SDS011;47773;53.174;6.614;2023-06-10T12:03:13;10.73;;;5.60;;
61840;SDS011;47773;53.174;6.614;2023-06-10T12:05:39;11.30;;;5.15;;
61840;SDS011;47773;53.174;6.614;2023-06-10T12:08:09;17.52;;;5.75;;
61840;SDS011;47773;53.174;6.614;2023-06-10T12:10:41;14.90;;;5.70;;
61840;SDS011;47773;53.174;6.614;2023-06-10T12:13:11;16.63;;;5.95;;
61840;SDS011;47773;53.174;6.614;2023-06-10T12:15:36;16.23;;;6.03;;
61840;SDS011;47773;53.174;6.614;2023-06-10T12:18:02;12.93;;;5.38;;
61840;SDS011;47773;53.174;6.614;2023-06-10T12:20:30;12.93;;;5.53;;
61840;SDS011;47773;53.174;6.614;2023-06-10T12:23:00;15.63;;;6.22;;
61840;SDS011;47773;53.174;6.614;2023-06-10T12:25:33;16.25;;;6.15;;
61840;SDS011;47773;53.174;6.614;2023-06-10T12:27:59;14.52;;;5.43;;
61840;SDS011;47773;53.174;6.614;2023-06-10T12:30:25;13.25;;;5.75;;
61840;SDS011;47773;53.174;6.614;2023-06-10T12:32:52;15.32;;;6.70;;
61840;SDS011;47773;53.174;6.614;2023-06-10T12:35:19;12.95;;;5.60;;
61840;SDS011;47773;53.174;6.614;2023-06-10T12:40:30;22.42;;;6.80;;
61840;SDS011;47773;53.174;6.614;2023-06-10T12:42:57;12.00;;;6.07;;
61840;SDS011;47773;53.174;6.614;2023-06-10T12:45:30;13.52;;;6.47;;
61840;SDS011;47773;53.174;6.614;2023-06-10T12:50:34;13.13;;;5.47;;
61840;SDS011;47773;53.174;6.614;2023-06-10T12:53:02;12.73;;;5.70;;
61840;SDS011;47773;53.174;6.614;2023-06-10T12:55:28;18.40;;;6.32;;
61840;SDS011;47773;53.174;6.614;2023-06-10T12:57:54;12.73;;;5.95;;
61840;SDS011;47773;53.174;6.614;2023-06-10T13:00:21;13.13;;;6.57;;
61840;SDS011;47773;53.174;6.614;2023-06-10T13:02:48;15.18;;;6.72;;
61840;SDS011;47773;53.174;6.614;2023-06-10T13:05:15;15.75;;;6.07;;
61840;SDS011;47773;53.174;6.614;2023-06-10T13:07:41;12.68;;;5.93;;
61840;SDS011;47773;53.174;6.614;2023-06-10T13:10:07;10.75;;;5.63;;
61840;SDS011;47773;53.174;6.614;2023-06-10T13:12:33;11.95;;;6.28;;
61840;SDS011;47773;53.174;6.614;2023-06-10T13:14:59;12.70;;;5.97;;
61840;SDS011;47773;53.174;6.614;2023-06-10T13:17:25;12.70;;;6.22;;
61840;SDS011;47773;53.174;6.614;2023-06-10T13:19:51;13.05;;;5.65;;
61840;SDS011;47773;53.174;6.614;2023-06-10T13:22:16;16.85;;;5.70;;
61840;SDS011;47773;53.174;6.614;2023-06-10T13:24:44;15.02;;;5.88;;
61840;SDS011;47773;53.174;6.614;2023-06-10T13:27:10;15.40;;;5.97;;
61840;SDS011;47773;53.174;6.614;2023-06-10T13:29:35;16.55;;;6.05;;
61840;SDS011;47773;53.174;6.614;2023-06-10T13:32:01;13.30;;;5.72;;
61840;SDS011;47773;53.174;6.614;2023-06-10T13:34:27;13.65;;;5.47;;
61840;SDS011;47773;53.174;6.614;2023-06-10T13:36:53;19.60;;;6.07;;
61840;SDS011;47773;53.174;6.614;2023-06-10T13:39:19;15.15;;;5.57;;
61840;SDS011;47773;53.174;6.614;2023-06-10T13:41:44;14.95;;;4.80;;
61840;SDS011;47773;53.174;6.614;2023-06-10T13:44:10;9.98;;;4.90;;
61840;SDS011;47773;53.174;6.614;2023-06-10T13:46:36;16.27;;;4.65;;
61840;SDS011;47773;53.174;6.614;2023-06-10T13:49:01;12.02;;;5.22;;
61840;SDS011;47773;53.174;6.614;2023-06-10T13:51:27;15.32;;;4.95;;
61840;SDS011;47773;53.174;6.614;2023-06-10T13:53:53;10.88;;;4.90;;
61840;SDS011;47773;53.174;6.614;2023-06-10T13:56:18;12.55;;;4.70;;
61840;SDS011;47773;53.174;6.614;2023-06-10T13:58:44;13.02;;;4.80;;
61840;SDS011;47773;53.174;6.614;2023-06-10T14:01:10;10.07;;;4.93;;
61840;SDS011;47773;53.174;6.614;2023-06-10T14:03:35;10.55;;;4.78;;
61840;SDS011;47773;53.174;6.614;2023-06-10T14:06:01;10.55;;;4.80;;
61840;SDS011;47773;53.174;6.614;2023-06-10T14:08:28;10.88;;;4.72;;
61840;SDS011;47773;53.174;6.614;2023-06-10T14:10:54;15.70;;;5.30;;
61840;SDS011;47773;53.174;6.614;2023-06-10T14:13:19;12.43;;;5.40;;
61840;SDS011;47773;53.174;6.614;2023-06-10T14:15:45;12.70;;;4.93;;
61840;SDS011;47773;53.174;6.614;2023-06-10T14:18:11;13.75;;;5.70;;
61840;SDS011;47773;53.174;6.614;2023-06-10T14:20:37;13.05;;;5.10;;
61840;SDS011;47773;53.174;6.614;2023-06-10T14:23:03;17.92;;;5.90;;
61840;SDS011;47773;53.174;6.614;2023-06-10T14:25:28;14.73;;;5.28;;
61840;SDS011;47773;53.174;6.614;2023-06-10T14:27:54;20.75;;;5.45;;
61840;SDS011;47773;53.174;6.614;2023-06-10T14:30:20;11.80;;;5.80;;
61840;SDS011;47773;53.174;6.614;2023-06-10T14:32:45;14.43;;;6.05;;
61840;SDS011;47773;53.174;6.614;2023-06-10T14:35:11;17.02;;;5.68;;
61840;SDS011;47773;53.174;6.614;2023-06-10T14:37:37;19.10;;;5.75;;
61840;SDS011;47773;53.174;6.614;2023-06-10T14:40:06;16.83;;;5.80;;
61840;SDS011;47773;53.174;6.614;2023-06-10T14:42:32;14.10;;;5.47;;
61840;SDS011;47773;53.174;6.614;2023-06-10T14:44:58;15.05;;;6.07;;
61840;SDS011;47773;53.174;6.614;2023-06-10T14:47:23;18.08;;;5.53;;
61840;SDS011;47773;53.174;6.614;2023-06-10T14:49:50;11.70;;;5.57;;
61840;SDS011;47773;53.174;6.614;2023-06-10T14:52:16;17.02;;;5.38;;
61840;SDS011;47773;53.174;6.614;2023-06-10T14:54:41;26.05;;;5.55;;
61840;SDS011;47773;53.174;6.614;2023-06-10T14:57:07;12.50;;;5.20;;
61840;SDS011;47773;53.174;6.614;2023-06-10T14:59:33;12.60;;;5.45;;
61840;SDS011;47773;53.174;6.614;2023-06-10T15:01:59;11.23;;;5.07;;